Terminal Aerodrome Forecast
Issued by NWS Wilmington, OH

Current Version | Previous Version | Graphics & Text | Print | Product List | Glossary On
Versions: 1 2 3 4 5 6 7 8 9 10 11 12 13 14 15 16 17 18 19 20 21 22
000
FTUS41 KILN 221732
TAFCVG
TAF
KCVG 221732Z 2218/2324 05012G20KT P6SM VCSH OVC080
      TEMPO 2218/2220 BKN025
     FM222300 04010KT P6SM BKN080
     FM231500 04012KT P6SM SCT250=

USA.gov is the U.S. government's official web portal to all federal, state and local government web resources and services.